KJEF

Jefferson City Memorial Airport

Airport
ICAO code
KJEF
IATA Code
JEF
Summary
ICAO Region
NAM
ICAO Territory
Location

Jefferson City, Missouri

Serving
Jefferson City
Elevation
549 ft
Coordinates
38° 35' 28" N , 92° 9' 22" W
KCC
Metar
KJEF 210553Z AUTO 17003KT 10SM CLR 21/16 A3012 RMK AO2 SLP185 60000 T02060161 10244 20194 402720161 53002

Jefferson City Memorial Airport is a public airport located 2 nm northeast of the central business district of Jefferson City, in Callaway County, Missouri, USA.

Airport map

Aerial View

SKYbrary Partners:

Safety knowledge contributed by: